Overview Statistics Trail Chart Weather Telemetry Raw packets
 

This is the latest recevied weather packets stored in our database for station/object KF6RAL-6. If no packets are shown the sender has not sent any weather packets the latest 10 day(s).

<< 57 58 59 60 61 62 63 >>
Time Temp. Humidity Pressure Rain* Wind** Luminosity Snow
1788075770 21.11° C 59% 1013.6 hPa 0 mm - - -
1788075349 21.11° C 59% 1013.9 hPa 0 mm - - -
1788074507 20.56° C 61% 1013.9 hPa 0 mm - - -
1788074086 20.56° C 63% 1013.8 hPa 0 mm - - -
1788073665 20° C 65% 1013.8 hPa 0 mm - - -
1788073246 20° C 65% 1013.8 hPa 0 mm - - -
1788072403 21.11° C 61% 1013.5 hPa 0 mm - - -
1788071981 21.67° C 64% 1013.9 hPa 0 mm - - -
1788071560 21.67° C 62% 1013.8 hPa 0 mm - - -
1788071139 21.11° C 64% 1013.1 hPa 0 mm - - -
1788070719 21.11° C 64% 1013 hPa 0 mm - - -
1788070297 20.56° C 67% 1012.6 hPa 0 mm - - -
1788069876 20.56° C 67% 1012.6 hPa 0 mm - - -
1788069455 20° C 69% 1012.9 hPa 0 mm - - -
1788069034 20° C 69% 1012.3 hPa 0 mm - - -
1788068613 20.56° C 69% 1012.2 hPa 0 mm - - -
1788068192 20.56° C 69% 1012.2 hPa 0 mm - - -
1788067771 20.56° C 70% 1012 hPa 0 mm - - -
1788067352 20.56° C 71% 1011.9 hPa 0 mm - - -
1788066929 20.56° C 70% 1011.6 hPa 0 mm - - -
1788066508 21.11° C 68% 1012.3 hPa 0 mm - - -
1788066087 21.67° C 65% 1013.2 hPa 0 mm - - -
1788065667 21.67° C 64% 1013.3 hPa 0 mm - - -
1788065245 22.22° C 62% 1013.2 hPa 0 mm - - -
1788064824 22.22° C 62% 1013.6 hPa 0 mm - - -

* Rain latest hour (hover to see other rain measurements)
** Current wind speed in m/s (hover to see current wind gust speed)